sensor_id;sensor_type;location;lat;lon;timestamp;temperature;humidity
65036;DHT22;51603;49.300;8.880;2023-04-25T00:01:50;8.10;99.90
65036;DHT22;51603;49.300;8.880;2023-04-25T00:04:16;8.10;99.90
65036;DHT22;51603;49.300;8.880;2023-04-25T00:06:42;8.10;99.90
65036;DHT22;51603;49.300;8.880;2023-04-25T00:09:07;8.00;99.90
65036;DHT22;51603;49.300;8.880;2023-04-25T00:11:34;8.00;99.90
65036;DHT22;51603;49.300;8.880;2023-04-25T00:14:00;8.00;99.90
65036;DHT22;51603;49.300;8.880;2023-04-25T00:16:27;8.00;99.90
65036;DHT22;51603;49.300;8.880;2023-04-25T00:18:54;8.00;99.90
65036;DHT22;51603;49.300;8.880;2023-04-25T00:21:20;7.90;99.90
65036;DHT22;51603;49.300;8.880;2023-04-25T00:23:46;7.90;99.90
65036;DHT22;51603;49.300;8.880;2023-04-25T00:26:12;7.90;99.90
65036;DHT22;51603;49.300;8.880;2023-04-25T00:28:38;7.90;99.90
65036;DHT22;51603;49.300;8.880;2023-04-25T00:31:04;7.90;99.90
65036;DHT22;51603;49.300;8.880;2023-04-25T00:33:29;7.90;99.90
65036;DHT22;51603;49.300;8.880;2023-04-25T00:35:55;7.80;99.90
65036;DHT22;51603;49.300;8.880;2023-04-25T00:38:21;7.80;99.90
65036;DHT22;51603;49.300;8.880;2023-04-25T00:40:47;7.80;99.90
65036;DHT22;51603;49.300;8.880;2023-04-25T00:43:13;7.80;99.90
65036;DHT22;51603;49.300;8.880;2023-04-25T00:45:39;7.80;99.90
65036;DHT22;51603;49.300;8.880;2023-04-25T00:48:05;7.70;99.90
65036;DHT22;51603;49.300;8.880;2023-04-25T00:50:32;7.70;99.90
65036;DHT22;51603;49.300;8.880;2023-04-25T00:52:58;7.70;99.90
65036;DHT22;51603;49.300;8.880;2023-04-25T00:55:23;7.70;99.90
65036;DHT22;51603;49.300;8.880;2023-04-25T00:57:50;7.70;99.90
65036;DHT22;51603;49.300;8.880;2023-04-25T01:00:15;7.70;99.90
65036;DHT22;51603;49.300;8.880;2023-04-25T01:02:41;7.70;99.90
65036;DHT22;51603;49.300;8.880;2023-04-25T01:05:10;7.70;99.90
65036;DHT22;51603;49.300;8.880;2023-04-25T01:07:37;7.70;99.90
65036;DHT22;51603;49.300;8.880;2023-04-25T01:10:04;7.70;99.90
65036;DHT22;51603;49.300;8.880;2023-04-25T01:12:30;7.60;99.90
65036;DHT22;51603;49.300;8.880;2023-04-25T01:14:56;7.70;99.90
65036;DHT22;51603;49.300;8.880;2023-04-25T01:17:21;7.60;99.90
65036;DHT22;51603;49.300;8.880;2023-04-25T01:19:47;7.60;99.90
65036;DHT22;51603;49.300;8.880;2023-04-25T01:22:14;7.60;99.90
65036;DHT22;51603;49.300;8.880;2023-04-25T01:24:40;7.60;99.90
65036;DHT22;51603;49.300;8.880;2023-04-25T01:27:06;7.60;99.90
65036;DHT22;51603;49.300;8.880;2023-04-25T01:29:32;7.60;99.90
65036;DHT22;51603;49.300;8.880;2023-04-25T01:31:59;7.50;99.90
65036;DHT22;51603;49.300;8.880;2023-04-25T01:34:25;7.50;99.90
65036;DHT22;51603;49.300;8.880;2023-04-25T01:36:51;7.50;99.90
65036;DHT22;51603;49.300;8.880;2023-04-25T01:39:18;7.50;99.90
65036;DHT22;51603;49.300;8.880;2023-04-25T01:41:45;7.50;99.90
65036;DHT22;51603;49.300;8.880;2023-04-25T01:44:11;7.50;99.90
65036;DHT22;51603;49.300;8.880;2023-04-25T01:46:36;7.50;99.90
65036;DHT22;51603;49.300;8.880;2023-04-25T01:49:02;7.50;99.90
65036;DHT22;51603;49.300;8.880;2023-04-25T01:51:28;7.50;99.90
65036;DHT22;51603;49.300;8.880;2023-04-25T01:53:54;7.50;99.90
65036;DHT22;51603;49.300;8.880;2023-04-25T01:56:20;7.40;99.90
65036;DHT22;51603;49.300;8.880;2023-04-25T01:58:46;7.40;99.90
65036;DHT22;51603;49.300;8.880;2023-04-25T02:01:11;7.40;99.90
65036;DHT22;51603;49.300;8.880;2023-04-25T02:03:37;7.30;99.90
65036;DHT22;51603;49.300;8.880;2023-04-25T02:06:03;7.30;99.90
65036;DHT22;51603;49.300;8.880;2023-04-25T02:08:28;7.30;99.90
65036;DHT22;51603;49.300;8.880;2023-04-25T02:10:54;7.30;99.90
65036;DHT22;51603;49.300;8.880;2023-04-25T02:13:19;7.30;99.90
65036;DHT22;51603;49.300;8.880;2023-04-25T02:15:45;7.30;99.90
65036;DHT22;51603;49.300;8.880;2023-04-25T02:18:10;7.30;99.90
65036;DHT22;51603;49.300;8.880;2023-04-25T02:20:36;7.30;99.90
65036;DHT22;51603;49.300;8.880;2023-04-25T02:23:02;7.30;99.90
65036;DHT22;51603;49.300;8.880;2023-04-25T02:25:28;7.30;99.90
65036;DHT22;51603;49.300;8.880;2023-04-25T02:27:54;7.40;99.90
65036;DHT22;51603;49.300;8.880;2023-04-25T02:30:20;7.40;99.90
65036;DHT22;51603;49.300;8.880;2023-04-25T02:32:45;7.40;99.90
65036;DHT22;51603;49.300;8.880;2023-04-25T02:35:11;7.40;99.90
65036;DHT22;51603;49.300;8.880;2023-04-25T02:37:38;7.40;99.90
65036;DHT22;51603;49.300;8.880;2023-04-25T02:40:04;7.40;99.90
65036;DHT22;51603;49.300;8.880;2023-04-25T02:42:30;7.40;99.90
65036;DHT22;51603;49.300;8.880;2023-04-25T02:44:56;7.40;99.90
65036;DHT22;51603;49.300;8.880;2023-04-25T02:47:22;7.40;99.90
65036;DHT22;51603;49.300;8.880;2023-04-25T02:49:47;7.40;99.90
65036;DHT22;51603;49.300;8.880;2023-04-25T02:52:13;7.40;99.90
65036;DHT22;51603;49.300;8.880;2023-04-25T02:54:40;7.30;99.90
65036;DHT22;51603;49.300;8.880;2023-04-25T02:57:06;7.30;99.90
65036;DHT22;51603;49.300;8.880;2023-04-25T02:59:31;7.40;99.90
65036;DHT22;51603;49.300;8.880;2023-04-25T03:01:57;7.30;99.90
65036;DHT22;51603;49.300;8.880;2023-04-25T03:04:23;7.30;99.90
65036;DHT22;51603;49.300;8.880;2023-04-25T03:06:52;7.30;99.90
65036;DHT22;51603;49.300;8.880;2023-04-25T03:09:19;7.30;99.90
65036;DHT22;51603;49.300;8.880;2023-04-25T03:11:45;7.30;99.90
65036;DHT22;51603;49.300;8.880;2023-04-25T03:14:11;7.30;99.90
65036;DHT22;51603;49.300;8.880;2023-04-25T03:16:37;7.30;99.90
65036;DHT22;51603;49.300;8.880;2023-04-25T03:19:03;7.30;99.90
65036;DHT22;51603;49.300;8.880;2023-04-25T03:21:29;7.30;99.90
65036;DHT22;51603;49.300;8.880;2023-04-25T03:23:57;7.30;99.90
65036;DHT22;51603;49.300;8.880;2023-04-25T03:26:22;7.30;99.90
65036;DHT22;51603;49.300;8.880;2023-04-25T03:28:48;7.30;99.90
65036;DHT22;51603;49.300;8.880;2023-04-25T03:31:13;7.20;99.90
65036;DHT22;51603;49.300;8.880;2023-04-25T03:33:39;7.20;99.90
65036;DHT22;51603;49.300;8.880;2023-04-25T03:36:05;7.20;99.90
65036;DHT22;51603;49.300;8.880;2023-04-25T03:38:31;7.20;99.90
65036;DHT22;51603;49.300;8.880;2023-04-25T03:40:56;7.20;99.90
65036;DHT22;51603;49.300;8.880;2023-04-25T03:43:22;7.20;99.90
65036;DHT22;51603;49.300;8.880;2023-04-25T03:45:47;7.10;99.90
65036;DHT22;51603;49.300;8.880;2023-04-25T03:48:13;7.10;99.90
65036;DHT22;51603;49.300;8.880;2023-04-25T03:50:39;7.10;99.90
65036;DHT22;51603;49.300;8.880;2023-04-25T03:53:04;7.10;99.90
65036;DHT22;51603;49.300;8.880;2023-04-25T03:55:30;7.10;99.90
65036;DHT22;51603;49.300;8.880;2023-04-25T03:57:57;7.10;99.90
65036;DHT22;51603;49.300;8.880;2023-04-25T04:00:23;7.10;99.90
65036;DHT22;51603;49.300;8.880;2023-04-25T04:02:49;7.10;99.90
65036;DHT22;51603;49.300;8.880;2023-04-25T04:05:15;7.10;99.90
65036;DHT22;51603;49.300;8.880;2023-04-25T04:07:40;7.10;99.90
65036;DHT22;51603;49.300;8.880;2023-04-25T04:10:11;7.00;99.90
65036;DHT22;51603;49.300;8.880;2023-04-25T04:12:37;7.10;99.90
65036;DHT22;51603;49.300;8.880;2023-04-25T04:15:04;7.10;99.90
65036;DHT22;51603;49.300;8.880;2023-04-25T04:17:30;7.10;99.90
65036;DHT22;51603;49.300;8.880;2023-04-25T04:19:56;7.10;99.90
65036;DHT22;51603;49.300;8.880;2023-04-25T04:22:22;7.10;99.90
65036;DHT22;51603;49.300;8.880;2023-04-25T04:24:48;7.10;99.90
65036;DHT22;51603;49.300;8.880;2023-04-25T04:27:15;7.10;99.90
65036;DHT22;51603;49.300;8.880;2023-04-25T04:29:42;7.10;99.90
65036;DHT22;51603;49.300;8.880;2023-04-25T04:32:08;7.00;99.90
65036;DHT22;51603;49.300;8.880;2023-04-25T04:34:34;7.00;99.90
65036;DHT22;51603;49.300;8.880;2023-04-25T04:37:00;7.00;99.90
65036;DHT22;51603;49.300;8.880;2023-04-25T04:39:26;7.00;99.90
65036;DHT22;51603;49.300;8.880;2023-04-25T04:41:51;7.00;99.90
65036;DHT22;51603;49.300;8.880;2023-04-25T04:44:17;7.00;99.90
65036;DHT22;51603;49.300;8.880;2023-04-25T04:46:43;7.00;99.90
65036;DHT22;51603;49.300;8.880;2023-04-25T04:49:11;7.00;99.90
65036;DHT22;51603;49.300;8.880;2023-04-25T04:51:37;7.00;99.90
65036;DHT22;51603;49.300;8.880;2023-04-25T04:54:03;7.00;99.90
65036;DHT22;51603;49.300;8.880;2023-04-25T04:56:30;7.10;99.90
65036;DHT22;51603;49.300;8.880;2023-04-25T04:58:59;7.10;99.90
65036;DHT22;51603;49.300;8.880;2023-04-25T05:01:26;7.10;99.90
65036;DHT22;51603;49.300;8.880;2023-04-25T05:03:52;7.10;99.90
65036;DHT22;51603;49.300;8.880;2023-04-25T05:06:20;7.10;99.90
65036;DHT22;51603;49.300;8.880;2023-04-25T05:08:45;7.10;99.90
65036;DHT22;51603;49.300;8.880;2023-04-25T05:11:11;7.10;99.90
65036;DHT22;51603;49.300;8.880;2023-04-25T05:13:37;7.10;99.90
65036;DHT22;51603;49.300;8.880;2023-04-25T05:16:02;7.10;99.90
65036;DHT22;51603;49.300;8.880;2023-04-25T05:18:28;7.10;99.90
65036;DHT22;51603;49.300;8.880;2023-04-25T05:20:55;7.10;99.90
65036;DHT22;51603;49.300;8.880;2023-04-25T05:23:20;7.10;99.90
65036;DHT22;51603;49.300;8.880;2023-04-25T05:25:46;7.10;99.90
65036;DHT22;51603;49.300;8.880;2023-04-25T05:28:12;7.10;99.90
65036;DHT22;51603;49.300;8.880;2023-04-25T05:30:38;7.10;99.90
65036;DHT22;51603;49.300;8.880;2023-04-25T05:33:03;7.20;99.90
65036;DHT22;51603;49.300;8.880;2023-04-25T05:35:29;7.20;99.90
65036;DHT22;51603;49.300;8.880;2023-04-25T05:37:55;7.20;99.90
65036;DHT22;51603;49.300;8.880;2023-04-25T05:40:20;7.20;99.90
65036;DHT22;51603;49.300;8.880;2023-04-25T05:42:46;7.20;99.90
65036;DHT22;51603;49.300;8.880;2023-04-25T05:45:12;7.30;99.90
65036;DHT22;51603;49.300;8.880;2023-04-25T05:47:38;7.30;99.90
65036;DHT22;51603;49.300;8.880;2023-04-25T05:50:04;7.30;99.90
65036;DHT22;51603;49.300;8.880;2023-04-25T05:52:29;7.30;99.90
65036;DHT22;51603;49.300;8.880;2023-04-25T05:54:55;7.30;99.90
65036;DHT22;51603;49.300;8.880;2023-04-25T05:57:25;7.30;99.90
65036;DHT22;51603;49.300;8.880;2023-04-25T05:59:51;7.40;99.90
65036;DHT22;51603;49.300;8.880;2023-04-25T06:02:17;7.40;99.90
65036;DHT22;51603;49.300;8.880;2023-04-25T06:04:43;7.50;99.90
65036;DHT22;51603;49.300;8.880;2023-04-25T06:07:09;7.50;99.90
65036;DHT22;51603;49.300;8.880;2023-04-25T06:09:34;7.50;99.90
65036;DHT22;51603;49.300;8.880;2023-04-25T06:12:00;7.60;99.90
65036;DHT22;51603;49.300;8.880;2023-04-25T06:14:26;7.60;99.90
65036;DHT22;51603;49.300;8.880;2023-04-25T06:16:52;7.60;99.90
65036;DHT22;51603;49.300;8.880;2023-04-25T06:19:17;7.70;99.90
65036;DHT22;51603;49.300;8.880;2023-04-25T06:21:44;7.70;99.90
65036;DHT22;51603;49.300;8.880;2023-04-25T06:24:09;7.70;99.90
65036;DHT22;51603;49.300;8.880;2023-04-25T06:26:35;7.80;99.90
65036;DHT22;51603;49.300;8.880;2023-04-25T06:29:01;7.70;99.90
65036;DHT22;51603;49.300;8.880;2023-04-25T06:31:26;7.70;99.90
65036;DHT22;51603;49.300;8.880;2023-04-25T06:33:52;7.70;99.90
65036;DHT22;51603;49.300;8.880;2023-04-25T06:36:22;7.70;99.90
65036;DHT22;51603;49.300;8.880;2023-04-25T06:38:51;7.70;99.90
65036;DHT22;51603;49.300;8.880;2023-04-25T06:41:17;7.60;99.90
65036;DHT22;51603;49.300;8.880;2023-04-25T06:43:43;7.60;99.90
65036;DHT22;51603;49.300;8.880;2023-04-25T06:46:08;7.70;99.90
65036;DHT22;51603;49.300;8.880;2023-04-25T06:48:34;7.70;99.90
65036;DHT22;51603;49.300;8.880;2023-04-25T06:50:59;7.70;99.90
65036;DHT22;51603;49.300;8.880;2023-04-25T06:53:25;7.70;99.90
65036;DHT22;51603;49.300;8.880;2023-04-25T06:55:51;7.70;99.90
65036;DHT22;51603;49.300;8.880;2023-04-25T06:58:17;7.80;99.90
65036;DHT22;51603;49.300;8.880;2023-04-25T07:00:43;7.80;99.90
65036;DHT22;51603;49.300;8.880;2023-04-25T07:03:08;7.90;99.90
65036;DHT22;51603;49.300;8.880;2023-04-25T07:05:34;8.00;99.90
65036;DHT22;51603;49.300;8.880;2023-04-25T07:07:59;8.10;99.90
65036;DHT22;51603;49.300;8.880;2023-04-25T07:10:25;8.10;99.90
65036;DHT22;51603;49.300;8.880;2023-04-25T07:12:51;8.20;99.90
65036;DHT22;51603;49.300;8.880;2023-04-25T07:15:16;8.30;99.90
65036;DHT22;51603;49.300;8.880;2023-04-25T07:17:42;8.30;99.90
65036;DHT22;51603;49.300;8.880;2023-04-25T07:20:08;8.40;99.90
65036;DHT22;51603;49.300;8.880;2023-04-25T07:22:34;8.40;99.90
65036;DHT22;51603;49.300;8.880;2023-04-25T07:25:00;8.40;99.90
65036;DHT22;51603;49.300;8.880;2023-04-25T07:27:26;8.40;99.90
65036;DHT22;51603;49.300;8.880;2023-04-25T07:29:51;8.50;99.90
65036;DHT22;51603;49.300;8.880;2023-04-25T07:32:17;8.60;99.90
65036;DHT22;51603;49.300;8.880;2023-04-25T07:34:42;8.70;99.90
65036;DHT22;51603;49.300;8.880;2023-04-25T07:37:08;8.70;99.90
65036;DHT22;51603;49.300;8.880;2023-04-25T07:39:33;8.80;99.90
65036;DHT22;51603;49.300;8.880;2023-04-25T07:41:59;8.70;99.90
65036;DHT22;51603;49.300;8.880;2023-04-25T07:44:25;8.70;99.90
65036;DHT22;51603;49.300;8.880;2023-04-25T07:46:51;8.80;99.90
65036;DHT22;51603;49.300;8.880;2023-04-25T07:49:16;8.80;99.90
65036;DHT22;51603;49.300;8.880;2023-04-25T07:51:42;8.90;99.90
65036;DHT22;51603;49.300;8.880;2023-04-25T07:54:09;9.00;99.90
65036;DHT22;51603;49.300;8.880;2023-04-25T07:56:35;8.90;99.90
65036;DHT22;51603;49.300;8.880;2023-04-25T07:59:00;8.80;99.90
65036;DHT22;51603;49.300;8.880;2023-04-25T08:01:26;8.70;99.90
65036;DHT22;51603;49.300;8.880;2023-04-25T08:03:52;8.80;99.90
65036;DHT22;51603;49.300;8.880;2023-04-25T08:06:18;8.80;99.90
65036;DHT22;51603;49.300;8.880;2023-04-25T08:08:43;8.80;99.90
65036;DHT22;51603;49.300;8.880;2023-04-25T08:11:09;8.70;99.90
65036;DHT22;51603;49.300;8.880;2023-04-25T08:13:35;8.70;99.90
65036;DHT22;51603;49.300;8.880;2023-04-25T08:16:01;8.80;99.90
65036;DHT22;51603;49.300;8.880;2023-04-25T08:18:26;8.80;99.90
65036;DHT22;51603;49.300;8.880;2023-04-25T08:20:52;8.80;99.90
65036;DHT22;51603;49.300;8.880;2023-04-25T08:23:18;8.90;99.90
65036;DHT22;51603;49.300;8.880;2023-04-25T08:25:43;8.90;99.90
65036;DHT22;51603;49.300;8.880;2023-04-25T08:28:09;9.00;99.90
65036;DHT22;51603;49.300;8.880;2023-04-25T08:30:34;9.00;99.90
65036;DHT22;51603;49.300;8.880;2023-04-25T08:33:00;9.20;99.90
65036;DHT22;51603;49.300;8.880;2023-04-25T08:35:26;9.30;99.90
65036;DHT22;51603;49.300;8.880;2023-04-25T08:37:51;9.50;99.90
65036;DHT22;51603;49.300;8.880;2023-04-25T08:40:17;9.50;99.90
65036;DHT22;51603;49.300;8.880;2023-04-25T08:42:43;9.40;99.90
65036;DHT22;51603;49.300;8.880;2023-04-25T08:45:09;9.40;99.90
65036;DHT22;51603;49.300;8.880;2023-04-25T08:47:37;9.30;99.90
65036;DHT22;51603;49.300;8.880;2023-04-25T08:50:04;9.40;99.90
65036;DHT22;51603;49.300;8.880;2023-04-25T08:52:42;9.50;99.90
65036;DHT22;51603;49.300;8.880;2023-04-25T08:55:09;9.50;99.90
65036;DHT22;51603;49.300;8.880;2023-04-25T08:57:35;9.50;99.90
65036;DHT22;51603;49.300;8.880;2023-04-25T09:00:01;9.60;99.90
65036;DHT22;51603;49.300;8.880;2023-04-25T09:02:27;9.60;99.90
65036;DHT22;51603;49.300;8.880;2023-04-25T09:04:54;9.50;99.90
65036;DHT22;51603;49.300;8.880;2023-04-25T09:07:20;9.50;99.90
65036;DHT22;51603;49.300;8.880;2023-04-25T09:09:46;9.40;99.90
65036;DHT22;51603;49.300;8.880;2023-04-25T09:12:13;9.50;99.90
65036;DHT22;51603;49.300;8.880;2023-04-25T09:14:38;9.60;99.90
65036;DHT22;51603;49.300;8.880;2023-04-25T09:17:05;9.70;99.90
65036;DHT22;51603;49.300;8.880;2023-04-25T09:19:34;9.80;99.90
65036;DHT22;51603;49.300;8.880;2023-04-25T09:22:03;9.90;99.90
65036;DHT22;51603;49.300;8.880;2023-04-25T09:24:39;9.90;99.90
65036;DHT22;51603;49.300;8.880;2023-04-25T09:27:07;10.10;99.90
65036;DHT22;51603;49.300;8.880;2023-04-25T09:29:35;10.20;99.90
65036;DHT22;51603;49.300;8.880;2023-04-25T09:32:21;10.30;99.90
65036;DHT22;51603;49.300;8.880;2023-04-25T09:34:49;10.40;99.90
65036;DHT22;51603;49.300;8.880;2023-04-25T09:37:28;10.40;99.90
65036;DHT22;51603;49.300;8.880;2023-04-25T09:39:57;10.40;99.90
65036;DHT22;51603;49.300;8.880;2023-04-25T09:42:25;10.20;99.90
65036;DHT22;51603;49.300;8.880;2023-04-25T09:44:54;10.20;99.90
65036;DHT22;51603;49.300;8.880;2023-04-25T09:47:22;10.10;99.90
65036;DHT22;51603;49.300;8.880;2023-04-25T09:49:49;10.20;99.90
65036;DHT22;51603;49.300;8.880;2023-04-25T09:52:17;10.50;99.90
65036;DHT22;51603;49.300;8.880;2023-04-25T09:54:48;10.90;99.90
65036;DHT22;51603;49.300;8.880;2023-04-25T09:57:18;11.00;99.90
65036;DHT22;51603;49.300;8.880;2023-04-25T09:59:49;11.20;99.90
65036;DHT22;51603;49.300;8.880;2023-04-25T10:02:17;11.50;99.90
65036;DHT22;51603;49.300;8.880;2023-04-25T10:04:48;11.50;99.90
65036;DHT22;51603;49.300;8.880;2023-04-25T10:07:14;11.50;99.90
65036;DHT22;51603;49.300;8.880;2023-04-25T10:09:40;11.40;99.90
65036;DHT22;51603;49.300;8.880;2023-04-25T10:12:07;11.50;99.90
65036;DHT22;51603;49.300;8.880;2023-04-25T10:14:34;11.60;99.90
65036;DHT22;51603;49.300;8.880;2023-04-25T10:17:00;11.80;99.90
65036;DHT22;51603;49.300;8.880;2023-04-25T10:19:26;12.10;99.90
65036;DHT22;51603;49.300;8.880;2023-04-25T10:22:10;11.80;99.90
65036;DHT22;51603;49.300;8.880;2023-04-25T10:24:37;11.60;99.90
65036;DHT22;51603;49.300;8.880;2023-04-25T10:27:04;11.60;99.90
65036;DHT22;51603;49.300;8.880;2023-04-25T10:29:30;11.40;99.90
65036;DHT22;51603;49.300;8.880;2023-04-25T10:31:57;11.50;99.90
65036;DHT22;51603;49.300;8.880;2023-04-25T10:34:41;11.60;99.90
65036;DHT22;51603;49.300;8.880;2023-04-25T10:37:10;11.80;99.90
65036;DHT22;51603;49.300;8.880;2023-04-25T10:39:39;12.10;99.90
65036;DHT22;51603;49.300;8.880;2023-04-25T10:42:05;12.30;97.40
65036;DHT22;51603;49.300;8.880;2023-04-25T10:44:34;12.50;97.40
65036;DHT22;51603;49.300;8.880;2023-04-25T10:47:02;12.50;97.70
65036;DHT22;51603;49.300;8.880;2023-04-25T10:49:37;12.50;95.90
65036;DHT22;51603;49.300;8.880;2023-04-25T10:54:43;12.20;97.40
65036;DHT22;51603;49.300;8.880;2023-04-25T10:57:30;12.00;96.60
65036;DHT22;51603;49.300;8.880;2023-04-25T11:00:01;12.00;95.30
65036;DHT22;51603;49.300;8.880;2023-04-25T11:02:46;12.10;97.00
65036;DHT22;51603;49.300;8.880;2023-04-25T11:05:40;11.90;95.50
65036;DHT22;51603;49.300;8.880;2023-04-25T11:08:11;11.80;97.40
65036;DHT22;51603;49.300;8.880;2023-04-25T11:10:37;11.90;97.90
65036;DHT22;51603;49.300;8.880;2023-04-25T11:13:05;12.00;97.40
65036;DHT22;51603;49.300;8.880;2023-04-25T11:15:30;12.00;95.00
65036;DHT22;51603;49.300;8.880;2023-04-25T11:17:56;11.90;96.40
65036;DHT22;51603;49.300;8.880;2023-04-25T11:20:24;11.80;95.30
65036;DHT22;51603;49.300;8.880;2023-04-25T11:22:51;11.70;94.30
65036;DHT22;51603;49.300;8.880;2023-04-25T11:25:16;11.40;94.90
65036;DHT22;51603;49.300;8.880;2023-04-25T11:27:52;11.40;95.50
65036;DHT22;51603;49.300;8.880;2023-04-25T11:30:19;11.40;96.30
65036;DHT22;51603;49.300;8.880;2023-04-25T11:32:46;11.40;96.00
65036;DHT22;51603;49.300;8.880;2023-04-25T11:35:12;11.20;95.70
65036;DHT22;51603;49.300;8.880;2023-04-25T11:37:43;11.10;96.60
65036;DHT22;51603;49.300;8.880;2023-04-25T11:40:09;11.00;97.70
65036;DHT22;51603;49.300;8.880;2023-04-25T11:42:39;11.00;98.30
65036;DHT22;51603;49.300;8.880;2023-04-25T11:45:08;11.00;97.70
65036;DHT22;51603;49.300;8.880;2023-04-25T11:47:35;10.80;97.50
65036;DHT22;51603;49.300;8.880;2023-04-25T11:50:04;10.70;98.70
65036;DHT22;51603;49.300;8.880;2023-04-25T11:52:40;10.60;99.10
65036;DHT22;51603;49.300;8.880;2023-04-25T11:55:17;10.50;99.90
65036;DHT22;51603;49.300;8.880;2023-04-25T11:57:45;10.40;99.90
65036;DHT22;51603;49.300;8.880;2023-04-25T12:00:17;10.30;99.90
65036;DHT22;51603;49.300;8.880;2023-04-25T12:02:47;10.40;99.90
65036;DHT22;51603;49.300;8.880;2023-04-25T12:05:15;10.60;99.90
65036;DHT22;51603;49.300;8.880;2023-04-25T12:07:42;10.70;99.90
65036;DHT22;51603;49.300;8.880;2023-04-25T12:10:10;10.90;99.90
65036;DHT22;51603;49.300;8.880;2023-04-25T12:12:36;11.00;99.90
65036;DHT22;51603;49.300;8.880;2023-04-25T12:15:22;11.00;99.90
65036;DHT22;51603;49.300;8.880;2023-04-25T12:17:50;11.10;99.90
65036;DHT22;51603;49.300;8.880;2023-04-25T12:20:18;11.20;99.90
65036;DHT22;51603;49.300;8.880;2023-04-25T12:22:46;11.30;99.50
65036;DHT22;51603;49.300;8.880;2023-04-25T12:28:18;11.60;98.20
65036;DHT22;51603;49.300;8.880;2023-04-25T12:30:57;11.80;97.40
65036;DHT22;51603;49.300;8.880;2023-04-25T12:33:27;11.90;97.80
65036;DHT22;51603;49.300;8.880;2023-04-25T12:35:56;11.90;97.40
65036;DHT22;51603;49.300;8.880;2023-04-25T12:38:35;11.80;96.70
65036;DHT22;51603;49.300;8.880;2023-04-25T12:41:01;11.70;96.60
65036;DHT22;51603;49.300;8.880;2023-04-25T12:43:26;11.90;96.50
65036;DHT22;51603;49.300;8.880;2023-04-25T12:45:53;12.10;96.50
65036;DHT22;51603;49.300;8.880;2023-04-25T12:48:20;12.00;95.00
65036;DHT22;51603;49.300;8.880;2023-04-25T12:50:46;11.90;94.80
65036;DHT22;51603;49.300;8.880;2023-04-25T12:53:19;11.90;94.40
65036;DHT22;51603;49.300;8.880;2023-04-25T12:55:46;11.90;93.70
65036;DHT22;51603;49.300;8.880;2023-04-25T12:58:12;11.80;93.80
65036;DHT22;51603;49.300;8.880;2023-04-25T13:00:38;12.00;93.90
65036;DHT22;51603;49.300;8.880;2023-04-25T13:03:04;12.40;94.20
65036;DHT22;51603;49.300;8.880;2023-04-25T13:05:30;12.80;93.20
65036;DHT22;51603;49.300;8.880;2023-04-25T13:07:56;12.80;92.50
65036;DHT22;51603;49.300;8.880;2023-04-25T13:10:21;12.80;91.20
65036;DHT22;51603;49.300;8.880;2023-04-25T13:12:47;12.70;91.30
65036;DHT22;51603;49.300;8.880;2023-04-25T13:15:12;12.30;91.00
65036;DHT22;51603;49.300;8.880;2023-04-25T13:17:41;12.20;90.70
65036;DHT22;51603;49.300;8.880;2023-04-25T13:20:07;12.10;91.60
65036;DHT22;51603;49.300;8.880;2023-04-25T13:22:35;12.00;92.20
65036;DHT22;51603;49.300;8.880;2023-04-25T13:25:02;11.90;92.60
65036;DHT22;51603;49.300;8.880;2023-04-25T13:27:28;11.70;93.00
65036;DHT22;51603;49.300;8.880;2023-04-25T13:29:54;11.70;94.40
65036;DHT22;51603;49.300;8.880;2023-04-25T13:32:20;11.60;93.30
65036;DHT22;51603;49.300;8.880;2023-04-25T13:34:45;11.40;94.20
65036;DHT22;51603;49.300;8.880;2023-04-25T13:37:11;11.50;95.00
65036;DHT22;51603;49.300;8.880;2023-04-25T13:39:36;11.50;94.60
65036;DHT22;51603;49.300;8.880;2023-04-25T13:42:02;11.60;94.70
65036;DHT22;51603;49.300;8.880;2023-04-25T13:44:28;11.60;94.80
65036;DHT22;51603;49.300;8.880;2023-04-25T13:46:54;11.90;94.40
65036;DHT22;51603;49.300;8.880;2023-04-25T13:49:19;12.00;93.10
65036;DHT22;51603;49.300;8.880;2023-04-25T13:51:45;12.10;93.00
65036;DHT22;51603;49.300;8.880;2023-04-25T13:54:10;12.10;92.50
65036;DHT22;51603;49.300;8.880;2023-04-25T13:56:36;12.10;92.20
65036;DHT22;51603;49.300;8.880;2023-04-25T13:59:02;12.10;91.30
65036;DHT22;51603;49.300;8.880;2023-04-25T14:01:28;12.00;91.50
65036;DHT22;51603;49.300;8.880;2023-04-25T14:03:55;11.90;92.10
65036;DHT22;51603;49.300;8.880;2023-04-25T14:06:21;11.80;92.40
65036;DHT22;51603;49.300;8.880;2023-04-25T14:08:49;11.90;93.40
65036;DHT22;51603;49.300;8.880;2023-04-25T14:11:15;12.10;92.80
65036;DHT22;51603;49.300;8.880;2023-04-25T14:13:43;12.30;90.30
65036;DHT22;51603;49.300;8.880;2023-04-25T14:16:09;12.50;91.10
65036;DHT22;51603;49.300;8.880;2023-04-25T14:18:34;12.60;90.60
65036;DHT22;51603;49.300;8.880;2023-04-25T14:21:00;12.50;87.70
65036;DHT22;51603;49.300;8.880;2023-04-25T14:23:26;12.30;86.80
65036;DHT22;51603;49.300;8.880;2023-04-25T14:25:52;12.30;90.30
65036;DHT22;51603;49.300;8.880;2023-04-25T14:28:17;12.00;89.20
65036;DHT22;51603;49.300;8.880;2023-04-25T14:30:43;11.90;90.50
65036;DHT22;51603;49.300;8.880;2023-04-25T14:33:08;11.90;91.10
65036;DHT22;51603;49.300;8.880;2023-04-25T14:35:35;12.00;90.70
65036;DHT22;51603;49.300;8.880;2023-04-25T14:38:00;12.00;90.70
65036;DHT22;51603;49.300;8.880;2023-04-25T14:40:26;12.00;91.20
65036;DHT22;51603;49.300;8.880;2023-04-25T14:42:51;11.90;90.70
65036;DHT22;51603;49.300;8.880;2023-04-25T14:45:17;11.70;91.40
65036;DHT22;51603;49.300;8.880;2023-04-25T14:47:43;11.60;92.00
65036;DHT22;51603;49.300;8.880;2023-04-25T14:50:09;11.50;91.90
65036;DHT22;51603;49.300;8.880;2023-04-25T14:52:35;11.50;92.80
65036;DHT22;51603;49.300;8.880;2023-04-25T14:55:01;11.60;92.70
65036;DHT22;51603;49.300;8.880;2023-04-25T14:57:31;11.70;92.30
65036;DHT22;51603;49.300;8.880;2023-04-25T14:59:57;11.80;91.80
65036;DHT22;51603;49.300;8.880;2023-04-25T15:02:24;12.00;91.80
65036;DHT22;51603;49.300;8.880;2023-04-25T15:04:49;12.10;90.40
65036;DHT22;51603;49.300;8.880;2023-04-25T15:07:15;12.20;90.20
65036;DHT22;51603;49.300;8.880;2023-04-25T15:09:41;12.10;88.10
65036;DHT22;51603;49.300;8.880;2023-04-25T15:12:06;12.00;88.50
65036;DHT22;51603;49.300;8.880;2023-04-25T15:14:33;12.00;84.10
65036;DHT22;51603;49.300;8.880;2023-04-25T15:16:59;12.10;86.40
65036;DHT22;51603;49.300;8.880;2023-04-25T15:19:25;12.30;83.40
65036;DHT22;51603;49.300;8.880;2023-04-25T15:21:51;12.60;82.70
65036;DHT22;51603;49.300;8.880;2023-04-25T15:24:17;12.20;81.50
65036;DHT22;51603;49.300;8.880;2023-04-25T15:26:43;12.10;83.50
65036;DHT22;51603;49.300;8.880;2023-04-25T15:29:09;11.90;85.20
65036;DHT22;51603;49.300;8.880;2023-04-25T15:31:34;11.80;86.30
65036;DHT22;51603;49.300;8.880;2023-04-25T15:34:01;11.80;88.70
65036;DHT22;51603;49.300;8.880;2023-04-25T15:36:26;12.00;90.80
65036;DHT22;51603;49.300;8.880;2023-04-25T15:38:52;12.20;89.80
65036;DHT22;51603;49.300;8.880;2023-04-25T15:41:17;12.00;88.00
65036;DHT22;51603;49.300;8.880;2023-04-25T15:43:43;11.90;88.90